Time;durP1;ratioP1;P1;durP2;ratioP2;P2;SDS_P1;SDS_P2;PMS_P1;PMS_P2;Temp;Humidity;BMP_temperature;BMP_pressure;BME280_temperature;BME280_humidity;BME280_pressure;Samples;Min_cycle;Max_cycle;Signal;HPM_P1;HPM_P2
2024/03/11 00:00:17;;;;;;;1.43;1.33;;;8.80;49.90;;;;;;5001836;28;20235;-57
2024/03/11 00:02:44;;;;;;;1.43;1.40;;;8.90;49.10;;;;;;4994393;28;20220;-55
2024/03/11 00:05:11;;;;;;;1.17;1.17;;;8.90;49.50;;;;;;5001784;28;20207;-57
2024/03/11 00:07:38;;;;;;;1.30;1.30;;;8.80;50.20;;;;;;4999883;28;21192;-56
2024/03/11 00:10:05;;;;;;;1.50;1.50;;;8.70;50.00;;;;;;4992200;28;20196;-54
2024/03/11 00:12:38;;;;;;;1.30;1.20;;;8.80;49.70;;;;;;4990398;28;20224;-55
2024/03/11 00:15:07;;;;;;;1.50;1.40;;;8.70;49.80;;;;;;4992396;28;20214;-54
2024/03/11 00:17:33;;;;;;;1.20;1.20;;;8.70;49.60;;;;;;4989749;28;20678;-55
2024/03/11 00:20:00;;;;;;;1.30;1.30;;;8.80;49.30;;;;;;4998904;28;20224;-53
2024/03/11 00:22:26;;;;;;;1.20;1.20;;;8.70;49.70;;;;;;4996272;28;20243;-57
2024/03/11 00:24:53;;;;;;;1.20;1.20;;;8.50;51.00;;;;;;4995459;28;20240;-56
2024/03/11 00:27:21;;;;;;;1.30;1.30;;;8.60;50.20;;;;;;4996760;28;20202;-55
2024/03/11 00:29:50;;;;;;;1.50;1.40;;;8.60;49.80;;;;;;4993038;28;20224;-55
2024/03/11 00:32:17;;;;;;;1.30;1.30;;;8.50;50.00;;;;;;4993215;28;20231;-56
2024/03/11 00:34:43;;;;;;;1.37;1.37;;;8.60;50.00;;;;;;4994637;28;20211;-56
2024/03/11 00:37:12;;;;;;;1.60;1.50;;;8.70;49.50;;;;;;4999485;28;20219;-56
2024/03/11 00:39:38;;;;;;;1.60;1.50;;;8.70;49.30;;;;;;4999401;28;20302;-57
2024/03/11 00:42:06;;;;;;;1.30;1.30;;;8.50;49.90;;;;;;4994138;28;20228;-54
2024/03/11 00:44:32;;;;;;;1.20;1.20;;;8.40;49.80;;;;;;4993235;28;20293;-55
2024/03/11 00:46:59;;;;;;;1.20;1.20;;;8.50;49.60;;;;;;4995153;28;20208;-53
2024/03/11 00:49:27;;;;;;;1.20;1.20;;;8.40;49.80;;;;;;4995145;28;20209;-56
2024/03/11 00:51:54;;;;;;;1.30;1.20;;;8.50;49.70;;;;;;4991435;28;20231;-54
2024/03/11 00:54:22;;;;;;;1.23;1.23;;;8.60;48.90;;;;;;4995917;28;20210;-57
2024/03/11 00:56:48;;;;;;;1.30;1.30;;;8.60;48.80;;;;;;4991953;28;20216;-58
2024/03/11 00:59:15;;;;;;;1.30;1.30;;;8.40;49.20;;;;;;4989721;28;20229;-56
2024/03/11 01:01:41;;;;;;;1.43;1.33;;;8.50;49.00;;;;;;4999212;28;20231;-57
2024/03/11 01:04:09;;;;;;;1.40;1.30;;;8.40;48.80;;;;;;5003702;28;20211;-54
2024/03/11 01:06:35;;;;;;;1.70;1.60;;;8.50;49.00;;;;;;4996075;28;20564;-56
2024/03/11 01:09:02;;;;;;;1.47;1.37;;;8.40;49.10;;;;;;4988239;28;20688;-56
2024/03/11 01:11:29;;;;;;;1.30;1.30;;;8.40;48.60;;;;;;5001224;28;20231;-56
2024/03/11 01:13:54;;;;;;;1.60;1.50;;;8.50;48.70;;;;;;4998138;28;20218;-55
2024/03/11 01:16:21;;;;;;;1.23;1.23;;;8.50;48.30;;;;;;4998991;28;20207;-56
2024/03/11 01:18:49;;;;;;;1.30;1.30;;;8.40;48.70;;;;;;4992608;28;20221;-54
2024/03/11 01:21:16;;;;;;;1.50;1.40;;;8.60;48.40;;;;;;4998787;28;20314;-56
2024/03/11 01:23:44;;;;;;;1.40;1.30;;;8.60;48.00;;;;;;4992819;28;20258;-55
2024/03/11 01:26:11;;;;;;;1.40;1.30;;;8.60;48.00;;;;;;4992541;28;20222;-55
2024/03/11 01:28:38;;;;;;;1.50;1.40;;;8.60;48.10;;;;;;4999087;28;20215;-57
2024/03/11 01:31:05;;;;;;;1.33;1.33;;;8.50;48.70;;;;;;5002030;28;20207;-58
2024/03/11 01:33:31;;;;;;;1.40;1.30;;;8.40;48.40;;;;;;4993438;28;20212;-59
2024/03/11 01:35:59;;;;;;;1.73;1.30;;;8.50;48.20;;;;;;4996660;28;20208;-57
2024/03/11 01:38:26;;;;;;;1.50;1.40;;;8.40;48.60;;;;;;5004156;28;20212;-56
2024/03/11 01:40:53;;;;;;;1.40;1.30;;;8.30;48.60;;;;;;4998399;28;20243;-58
2024/03/11 01:43:19;;;;;;;1.47;1.40;;;8.40;48.60;;;;;;5003454;28;20234;-55
2024/03/11 01:45:46;;;;;;;1.67;1.50;;;8.40;48.60;;;;;;5001578;28;20218;-58
2024/03/11 01:48:13;;;;;;;1.50;1.40;;;8.20;48.90;;;;;;5001624;28;20226;-55
2024/03/11 01:50:40;;;;;;;1.40;1.40;;;8.10;49.10;;;;;;5003922;28;20276;-57
2024/03/11 01:53:06;;;;;;;1.40;1.40;;;8.20;48.50;;;;;;5000647;28;20222;-57
2024/03/11 01:55:33;;;;;;;1.50;1.40;;;8.40;48.60;;;;;;5003050;28;20683;-55
2024/03/11 01:57:59;;;;;;;1.30;1.30;;;8.30;48.60;;;;;;5001626;28;20677;-57
2024/03/11 02:00:26;;;;;;;1.40;1.40;;;8.20;48.50;;;;;;4996373;28;20702;-56
2024/03/11 02:02:53;;;;;;;1.20;1.20;;;8.20;48.50;;;;;;5002895;28;20729;-55
2024/03/11 02:05:20;;;;;;;1.53;1.47;;;8.20;48.50;;;;;;5003645;28;20207;-57
2024/03/11 02:07:47;;;;;;;1.80;1.27;;;8.20;48.50;;;;;;4997997;28;20315;-57
2024/03/11 02:10:14;;;;;;;1.60;1.50;;;8.30;48.00;;;;;;4995525;28;20218;-56
2024/03/11 02:12:41;;;;;;;1.47;1.37;;;8.10;48.40;;;;;;5001200;28;20717;-55
2024/03/11 02:15:10;;;;;;;1.40;1.30;;;8.10;48.40;;;;;;4997544;28;20327;-56
2024/03/11 02:17:38;;;;;;;1.40;1.40;;;8.20;48.10;;;;;;5001425;28;20280;-54
2024/03/11 02:20:07;;;;;;;1.57;1.47;;;8.20;48.50;;;;;;4996208;28;20224;-57
2024/03/11 02:22:34;;;;;;;1.53;1.43;;;7.90;49.00;;;;;;5001891;28;20232;-56
2024/03/11 02:25:01;;;;;;;1.50;1.40;;;8.00;48.70;;;;;;5002384;28;20217;-56
2024/03/11 02:27:27;;;;;;;1.53;1.43;;;8.20;48.50;;;;;;4993297;28;20209;-58
2024/03/11 02:29:54;;;;;;;1.37;1.37;;;8.20;48.00;;;;;;5000219;28;20614;-57
2024/03/11 02:32:20;;;;;;;1.50;1.40;;;8.00;48.30;;;;;;4989551;28;20232;-56
2024/03/11 02:34:47;;;;;;;1.57;1.47;;;8.00;48.30;;;;;;5001225;28;20215;-57
2024/03/11 02:37:13;;;;;;;1.37;1.37;;;7.80;48.90;;;;;;4999020;28;20211;-54
2024/03/11 02:39:40;;;;;;;1.67;1.57;;;7.80;49.20;;;;;;5001165;28;20229;-55
2024/03/11 02:42:09;;;;;;;1.57;1.30;;;7.80;48.90;;;;;;5002035;28;20230;-54
2024/03/11 02:44:36;;;;;;;1.57;1.47;;;8.10;48.40;;;;;;5001869;28;20215;-54
2024/03/11 02:47:03;;;;;;;1.40;1.40;;;8.00;48.30;;;;;;4994797;28;20212;-56
2024/03/11 02:49:30;;;;;;;1.60;1.50;;;8.00;48.30;;;;;;4996901;28;20214;-56
2024/03/11 02:51:56;;;;;;;1.50;1.40;;;8.20;47.60;;;;;;5000425;28;20238;-54
2024/03/11 02:54:23;;;;;;;1.60;1.50;;;8.10;47.70;;;;;;5000870;28;20210;-54
2024/03/11 02:56:50;;;;;;;1.43;1.43;;;8.20;47.10;;;;;;4996413;28;20211;-57
2024/03/11 02:59:16;;;;;;;1.40;1.40;;;8.30;46.90;;;;;;5000824;28;20250;-57
2024/03/11 03:01:43;;;;;;;1.47;1.37;;;8.20;47.20;;;;;;4993474;28;20235;-56
2024/03/11 03:04:10;;;;;;;1.60;1.50;;;8.00;47.50;;;;;;5000912;28;20211;-55
2024/03/11 03:06:36;;;;;;;1.17;1.17;;;7.90;47.80;;;;;;4990752;28;20210;-57
2024/03/11 03:09:03;;;;;;;1.30;1.30;;;8.10;47.30;;;;;;4997406;28;20208;-55
2024/03/11 03:11:29;;;;;;;1.13;1.13;;;8.20;47.10;;;;;;4998385;28;20725;-56
2024/03/11 03:13:56;;;;;;;1.37;1.30;;;8.20;47.00;;;;;;5000472;28;20219;-55
2024/03/11 03:16:23;;;;;;;1.40;1.33;;;8.20;46.70;;;;;;4988357;28;20875;-55
2024/03/11 03:18:49;;;;;;;1.50;1.40;;;8.10;47.00;;;;;;4995302;28;20700;-55
2024/03/11 03:21:17;;;;;;;1.33;1.33;;;8.00;47.30;;;;;;4998420;28;20682;-54
2024/03/11 03:23:43;;;;;;;1.33;1.33;;;8.00;47.60;;;;;;4994403;28;20215;-58
2024/03/11 03:26:10;;;;;;;2.60;1.40;;;7.90;47.60;;;;;;4991378;28;20596;-58
2024/03/11 03:28:37;;;;;;;1.50;1.40;;;7.90;48.00;;;;;;4991785;28;20676;-55
2024/03/11 03:31:04;;;;;;;1.63;1.53;;;8.00;47.60;;;;;;4998821;28;20927;-54
2024/03/11 03:33:31;;;;;;;1.40;1.40;;;7.80;47.70;;;;;;4993378;28;20214;-53
2024/03/11 03:35:58;;;;;;;1.40;1.40;;;8.00;47.20;;;;;;4993851;28;20552;-56
2024/03/11 03:38:24;;;;;;;1.50;1.40;;;7.90;47.50;;;;;;4997545;28;20600;-55
2024/03/11 03:40:51;;;;;;;1.87;1.70;;;7.90;47.40;;;;;;4993718;28;20227;-56
2024/03/11 03:43:17;;;;;;;2.37;2.17;;;7.90;47.60;;;;;;4999639;28;20231;-53
2024/03/11 03:45:44;;;;;;;1.60;1.50;;;7.90;47.40;;;;;;4987366;28;20210;-52
2024/03/11 03:48:10;;;;;;;1.70;1.60;;;7.80;48.20;;;;;;4998494;28;20211;-57
2024/03/11 03:50:38;;;;;;;1.87;1.67;;;8.10;47.70;;;;;;4999497;28;20218;-56
2024/03/11 03:53:04;;;;;;;1.47;1.40;;;7.90;47.20;;;;;;4998397;28;20297;-54
2024/03/11 03:55:31;;;;;;;1.50;1.40;;;7.90;47.10;;;;;;4998358;28;20222;-56
2024/03/11 03:57:58;;;;;;;1.70;1.60;;;7.80;47.50;;;;;;4996962;28;20574;-56
2024/03/11 04:00:24;;;;;;;1.70;1.60;;;7.80;47.40;;;;;;4989584;28;20230;-54
2024/03/11 04:02:51;;;;;;;1.40;1.40;;;7.80;48.20;;;;;;4990158;28;20223;-57
2024/03/11 04:05:18;;;;;;;1.67;1.57;;;7.70;47.60;;;;;;4995043;28;20298;-54
2024/03/11 04:07:45;;;;;;;1.97;1.87;;;7.60;48.00;;;;;;4990717;28;20636;-56
2024/03/11 04:10:13;;;;;;;1.90;1.50;;;7.60;48.00;;;;;;4996378;28;20214;-53
2024/03/11 04:12:41;;;;;;;1.60;1.50;;;7.60;48.60;;;;;;4998929;28;20252;-54
2024/03/11 04:15:09;;;;;;;1.63;1.53;;;7.60;48.10;;;;;;4987144;28;20228;-56
2024/03/11 04:17:38;;;;;;;1.70;1.60;;;7.40;48.40;;;;;;4994663;28;20250;-56
2024/03/11 04:20:10;;;;;;;1.67;1.57;;;7.50;48.30;;;;;;4997415;28;20250;-58
2024/03/11 04:22:37;;;;;;;1.90;1.80;;;7.30;48.40;;;;;;4993635;28;20227;-55
2024/03/11 04:25:05;;;;;;;1.50;1.40;;;7.30;48.50;;;;;;4998230;28;20260;-52
2024/03/11 04:27:31;;;;;;;1.50;1.40;;;7.30;49.00;;;;;;4991038;28;20211;-54
2024/03/11 04:29:59;;;;;;;3.17;1.70;;;7.30;48.50;;;;;;4996661;28;20207;-56
2024/03/11 04:32:25;;;;;;;1.80;1.70;;;7.20;48.90;;;;;;4986925;28;20237;-55
2024/03/11 04:34:52;;;;;;;2.20;1.90;;;7.20;49.30;;;;;;4997056;28;20217;-56
2024/03/11 04:37:19;;;;;;;1.80;1.70;;;7.30;49.30;;;;;;4997641;28;20221;-56
2024/03/11 04:39:45;;;;;;;2.03;1.80;;;7.30;49.60;;;;;;4991620;28;20223;-55
2024/03/11 04:42:12;;;;;;;1.77;1.40;;;7.30;49.20;;;;;;4992975;28;20238;-56
2024/03/11 04:44:39;;;;;;;1.70;1.50;;;7.40;49.30;;;;;;4996981;28;20218;-56
2024/03/11 04:47:05;;;;;;;1.70;1.60;;;7.50;48.80;;;;;;4995178;28;20203;-54
2024/03/11 04:49:32;;;;;;;1.67;1.57;;;7.60;48.70;;;;;;4993784;28;20209;-57
2024/03/11 04:51:59;;;;;;;2.87;1.70;;;7.70;48.90;;;;;;4993794;28;20237;-54
2024/03/11 04:54:26;;;;;;;1.60;1.50;;;7.70;49.00;;;;;;4993801;28;20633;-54
2024/03/11 04:56:53;;;;;;;3.73;1.80;;;7.60;49.20;;;;;;4992979;28;20220;-53
2024/03/11 04:59:19;;;;;;;2.10;2.00;;;7.50;49.20;;;;;;4986894;28;20217;-56
2024/03/11 05:01:46;;;;;;;3.10;2.00;;;7.50;49.60;;;;;;4991373;28;20752;-56
2024/03/11 05:04:12;;;;;;;1.77;1.67;;;7.60;49.40;;;;;;4988709;28;20589;-55
2024/03/11 05:06:39;;;;;;;1.90;1.80;;;7.40;49.10;;;;;;4985995;28;20230;-52
2024/03/11 05:09:06;;;;;;;2.37;1.97;;;7.30;49.60;;;;;;4988782;28;20210;-55
2024/03/11 05:11:33;;;;;;;2.57;1.80;;;7.50;49.50;;;;;;4985966;28;20226;-54
2024/03/11 05:13:59;;;;;;;1.70;1.60;;;7.60;49.50;;;;;;4995601;28;20297;-55
2024/03/11 05:16:26;;;;;;;3.23;1.80;;;7.60;48.80;;;;;;4995605;28;20220;-53
2024/03/11 05:18:53;;;;;;;2.07;1.97;;;7.60;49.20;;;;;;4988407;28;20234;-55
2024/03/11 05:21:19;;;;;;;2.70;2.50;;;7.50;49.10;;;;;;4992791;28;20617;-53
2024/03/11 05:23:46;;;;;;;3.33;3.03;;;7.50;49.70;;;;;;4988299;28;20215;-53
2024/03/11 05:26:12;;;;;;;2.50;2.20;;;7.40;49.70;;;;;;4995966;28;20219;-53
2024/03/11 05:28:39;;;;;;;7.00;2.70;;;7.30;50.00;;;;;;4996615;28;20218;-53
2024/03/11 05:31:06;;;;;;;3.00;2.10;;;7.20;50.40;;;;;;4994391;28;20213;-55
2024/03/11 05:33:33;;;;;;;4.60;2.20;;;7.30;50.40;;;;;;4995644;28;20215;-55
2024/03/11 05:35:59;;;;;;;2.33;2.13;;;7.30;50.70;;;;;;4995851;28;20214;-55
2024/03/11 05:38:26;;;;;;;3.57;2.30;;;7.60;50.10;;;;;;4990052;28;20207;-56
2024/03/11 05:40:53;;;;;;;2.23;1.80;;;7.60;51.20;;;;;;4991503;28;20310;-53
2024/03/11 05:43:19;;;;;;;6.33;3.10;;;7.60;50.40;;;;;;4993069;28;20235;-56
2024/03/11 05:45:47;;;;;;;5.33;2.33;;;7.60;50.80;;;;;;4994581;28;20223;-56
2024/03/11 05:48:14;;;;;;;3.27;2.00;;;7.70;50.00;;;;;;4994096;28;20211;-55
2024/03/11 05:50:40;;;;;;;3.10;1.93;;;7.70;49.80;;;;;;4989060;28;20297;-55
2024/03/11 05:53:07;;;;;;;4.23;1.90;;;7.80;49.90;;;;;;4994773;28;20250;-56
2024/03/11 05:55:33;;;;;;;2.73;1.90;;;7.80;49.90;;;;;;4998334;28;20214;-53
2024/03/11 05:58:08;;;;;;;4.03;2.07;;;7.80;49.20;;;;;;4998766;28;20215;-55
2024/03/11 06:00:36;;;;;;;1.83;1.73;;;7.70;49.40;;;;;;4999505;28;20257;-56
2024/03/11 06:03:03;;;;;;;5.80;1.90;;;7.70;50.00;;;;;;4992218;28;20231;-58
2024/03/11 06:05:29;;;;;;;2.43;2.03;;;7.60;49.60;;;;;;4997602;28;20218;-56
2024/03/11 06:07:56;;;;;;;2.57;1.80;;;7.70;49.80;;;;;;5000947;28;20222;-57
2024/03/11 06:10:23;;;;;;;2.50;1.80;;;7.70;49.30;;;;;;5003637;28;20204;-56
2024/03/11 06:12:49;;;;;;;3.17;2.17;;;7.70;49.40;;;;;;5001777;28;20226;-57
2024/03/11 06:15:16;;;;;;;2.03;1.80;;;7.70;49.20;;;;;;5002623;28;20216;-56
2024/03/11 06:17:43;;;;;;;2.83;1.87;;;7.50;50.00;;;;;;4991711;28;20214;-57
2024/03/11 06:20:13;;;;;;;2.00;1.90;;;7.50;50.20;;;;;;5001743;28;20238;-54
2024/03/11 06:22:39;;;;;;;2.77;2.00;;;7.60;50.00;;;;;;4998858;28;20301;-56
2024/03/11 06:25:06;;;;;;;2.60;1.80;;;7.60;50.20;;;;;;4999980;28;20282;-56
2024/03/11 06:27:33;;;;;;;2.27;2.07;;;7.60;50.20;;;;;;5002182;28;20678;-56
2024/03/11 06:30:01;;;;;;;3.50;2.10;;;7.80;49.70;;;;;;4993375;28;20211;-55
2024/03/11 06:32:30;;;;;;;3.33;2.10;;;7.80;50.00;;;;;;4995535;28;20237;-56
2024/03/11 06:34:57;;;;;;;2.10;1.80;;;7.70;50.00;;;;;;5002633;28;20238;-57
2024/03/11 06:37:23;;;;;;;4.50;2.50;;;7.80;50.30;;;;;;5002089;28;20199;-56
2024/03/11 06:39:50;;;;;;;4.33;2.37;;;8.00;49.70;;;;;;4989940;28;20242;-54
2024/03/11 06:42:16;;;;;;;2.27;2.03;;;7.60;50.20;;;;;;5002548;28;20230;-56
2024/03/11 06:44:43;;;;;;;4.30;2.40;;;7.70;50.00;;;;;;4998415;28;20215;-58
2024/03/11 06:47:11;;;;;;;5.27;2.13;;;7.90;49.70;;;;;;4993504;28;20243;-56
2024/03/11 06:49:38;;;;;;;3.40;2.47;;;7.90;50.00;;;;;;5002218;28;20579;-57
2024/03/11 06:52:07;;;;;;;4.70;2.67;;;8.00;49.70;;;;;;5001558;28;20718;-56
2024/03/11 06:54:34;;;;;;;3.43;2.00;;;7.70;50.00;;;;;;5000680;28;20216;-58
2024/03/11 06:57:01;;;;;;;4.53;2.13;;;7.60;50.50;;;;;;4999495;28;20216;-56
2024/03/11 06:59:28;;;;;;;6.00;2.30;;;7.90;50.10;;;;;;5000388;28;20341;-55
2024/03/11 07:01:55;;;;;;;5.80;2.30;;;8.00;49.30;;;;;;4996930;28;20235;-55
2024/03/11 07:04:21;;;;;;;4.63;2.60;;;8.20;49.30;;;;;;4996066;28;20221;-57
2024/03/11 07:06:48;;;;;;;3.90;2.07;;;8.20;49.10;;;;;;4992176;28;20597;-58
2024/03/11 07:09:15;;;;;;;2.53;2.00;;;8.30;48.60;;;;;;5001077;28;20386;-53
2024/03/11 07:11:42;;;;;;;2.00;1.80;;;8.30;48.60;;;;;;5001595;28;20684;-56
2024/03/11 07:14:13;;;;;;;4.90;2.57;;;8.40;48.60;;;;;;5001352;28;20238;-55
2024/03/11 07:16:40;;;;;;;2.90;2.17;;;8.50;48.50;;;;;;4995656;28;20250;-52
2024/03/11 07:19:07;;;;;;;4.30;2.20;;;8.60;49.10;;;;;;4996128;28;20208;-54
2024/03/11 07:21:34;;;;;;;3.23;1.97;;;8.60;48.30;;;;;;4992237;28;20289;-56
2024/03/11 07:24:01;;;;;;;4.50;2.30;;;8.60;48.80;;;;;;4999508;28;20199;-55
2024/03/11 07:26:27;;;;;;;2.63;2.20;;;8.60;48.10;;;;;;4996967;28;20262;-56
2024/03/11 07:28:54;;;;;;;2.73;2.20;;;8.60;48.80;;;;;;4989847;28;20207;-56
2024/03/11 07:31:20;;;;;;;3.27;2.10;;;8.50;48.70;;;;;;5001808;28;20721;-55
2024/03/11 07:33:48;;;;;;;7.77;1.97;;;8.50;48.50;;;;;;4993629;28;20685;-55
2024/03/11 07:36:15;;;;;;;2.50;1.80;;;8.60;48.10;;;;;;5001204;28;20207;-57
2024/03/11 07:38:42;;;;;;;3.33;1.73;;;8.60;48.50;;;;;;4999958;28;20687;-54
2024/03/11 07:41:09;;;;;;;2.37;2.00;;;8.60;48.60;;;;;;4996050;28;20311;-55
2024/03/11 07:43:36;;;;;;;5.57;2.20;;;8.60;47.90;;;;;;4998980;28;20213;-57
2024/03/11 07:46:04;;;;;;;3.17;2.30;;;8.70;47.90;;;;;;4997441;28;20210;-55
2024/03/11 07:48:31;;;;;;;4.10;2.23;;;8.80;47.50;;;;;;4988116;28;20288;-56
2024/03/11 07:50:58;;;;;;;2.93;1.60;;;8.80;47.90;;;;;;4998140;28;20211;-57
2024/03/11 07:53:25;;;;;;;2.03;1.63;;;8.80;47.70;;;;;;4996684;28;20232;-55
2024/03/11 07:55:51;;;;;;;2.30;1.70;;;8.90;47.30;;;;;;4998081;28;20219;-56
2024/03/11 07:58:18;;;;;;;1.97;1.63;;;9.00;47.60;;;;;;4995089;28;20651;-55
2024/03/11 08:00:45;;;;;;;5.07;1.80;;;9.00;47.40;;;;;;4987171;28;20224;-54
2024/03/11 08:03:11;;;;;;;1.60;1.50;;;9.00;47.70;;;;;;4994928;28;20255;-56
2024/03/11 08:05:38;;;;;;;6.47;2.10;;;9.10;47.00;;;;;;4988768;28;20212;-57
2024/03/11 08:08:07;;;;;;;2.87;1.80;;;9.20;47.40;;;;;;4992264;28;20197;-55
2024/03/11 08:10:34;;;;;;;2.67;1.77;;;9.20;46.90;;;;;;4992484;28;20204;-56
2024/03/11 08:13:01;;;;;;;2.93;1.70;;;9.30;47.00;;;;;;4980484;28;20860;-57
2024/03/11 08:15:28;;;;;;;2.07;1.87;;;9.30;46.80;;;;;;4993607;28;20586;-54
2024/03/11 08:17:55;;;;;;;2.20;2.00;;;9.30;46.60;;;;;;4992316;28;20577;-57
2024/03/11 08:20:23;;;;;;;1.80;1.60;;;9.50;46.50;;;;;;4990789;28;20211;-55
2024/03/11 08:22:52;;;;;;;1.60;1.50;;;9.50;45.90;;;;;;4975838;28;20223;-55
2024/03/11 08:25:20;;;;;;;1.70;1.60;;;9.70;45.90;;;;;;4981077;28;20271;-54
2024/03/11 08:27:48;;;;;;;1.67;1.57;;;9.60;45.60;;;;;;4978257;28;20207;-55
2024/03/11 08:30:19;;;;;;;1.80;1.70;;;9.70;45.20;;;;;;4973049;28;20207;-54
2024/03/11 08:32:50;;;;;;;1.67;1.57;;;9.90;44.80;;;;;;4978605;28;20246;-59
2024/03/11 08:35:21;;;;;;;1.30;1.30;;;9.90;45.00;;;;;;4986789;28;20213;-56
2024/03/11 08:37:49;;;;;;;1.50;1.40;;;10.10;43.60;;;;;;4987173;28;20217;-60
2024/03/11 08:40:17;;;;;;;1.50;1.40;;;10.20;43.50;;;;;;4991038;28;20201;-56
2024/03/11 08:42:47;;;;;;;1.53;1.43;;;10.30;42.80;;;;;;4981181;28;20231;-59
2024/03/11 08:45:17;;;;;;;1.30;1.20;;;10.50;42.30;;;;;;4975473;28;20222;-55
2024/03/11 08:47:44;;;;;;;1.40;1.30;;;10.70;42.20;;;;;;4980242;28;20282;-54
2024/03/11 08:50:12;;;;;;;1.50;1.40;;;10.80;41.20;;;;;;4975363;28;20214;-57
2024/03/11 08:52:39;;;;;;;3.07;1.60;;;11.10;40.90;;;;;;4989381;28;22628;-55
2024/03/11 08:55:06;;;;;;;1.50;1.40;;;11.50;41.00;;;;;;4989269;28;20203;-53
2024/03/11 08:57:33;;;;;;;2.57;1.40;;;11.60;40.90;;;;;;4979069;28;20214;-57
2024/03/11 09:00:00;;;;;;;1.40;1.30;;;11.90;39.70;;;;;;4977314;28;20208;-54
2024/03/11 09:02:27;;;;;;;1.30;1.20;;;11.90;39.10;;;;;;4985345;28;20467;-55
2024/03/11 09:04:54;;;;;;;2.70;1.50;;;11.70;39.30;;;;;;4984908;28;20208;-57
2024/03/11 09:07:21;;;;;;;2.53;1.30;;;11.70;39.00;;;;;;4988129;28;20204;-53
2024/03/11 09:09:48;;;;;;;1.40;1.30;;;12.00;39.40;;;;;;4993784;28;20211;-55
2024/03/11 09:12:16;;;;;;;1.20;1.20;;;12.40;38.90;;;;;;4986493;28;20300;-57
2024/03/11 09:14:42;;;;;;;1.50;1.40;;;12.70;38.30;;;;;;4988750;28;20216;-56
2024/03/11 09:17:12;;;;;;;1.50;1.33;;;12.80;37.30;;;;;;4988707;28;20212;-55
2024/03/11 09:19:39;;;;;;;3.17;1.30;;;12.80;36.70;;;;;;4990945;28;20362;-56
2024/03/11 09:22:05;;;;;;;3.13;1.63;;;13.00;36.80;;;;;;4993981;28;20261;-57
2024/03/11 09:24:32;;;;;;;1.50;1.40;;;13.10;35.70;;;;;;4991692;28;20204;-57
2024/03/11 09:26:59;;;;;;;1.37;1.27;;;13.20;36.20;;;;;;4992063;28;20204;-57
2024/03/11 09:29:26;;;;;;;1.30;1.20;;;13.10;36.00;;;;;;4967984;28;20204;-56
2024/03/11 09:31:52;;;;;;;1.30;1.20;;;13.40;36.30;;;;;;4984469;28;20960;-57
2024/03/11 09:34:19;;;;;;;1.10;1.10;;;13.60;36.00;;;;;;4955539;28;20621;-58
2024/03/11 09:36:46;;;;;;;1.43;1.30;;;13.80;35.70;;;;;;4965318;28;20211;-55
2024/03/11 09:39:13;;;;;;;1.20;1.10;;;13.70;34.50;;;;;;4957884;28;21648;-56
2024/03/11 09:41:39;;;;;;;4.17;1.33;;;13.80;34.80;;;;;;4963603;28;20251;-56
2024/03/11 09:44:06;;;;;;;1.03;0.97;;;13.90;34.30;;;;;;4961123;28;20698;-57
2024/03/11 09:46:33;;;;;;;1.20;1.10;;;14.10;34.10;;;;;;4952819;28;20857;-54
2024/03/11 09:49:00;;;;;;;1.03;1.03;;;14.00;34.10;;;;;;4970450;28;20220;-55
2024/03/11 09:51:29;;;;;;;1.83;1.20;;;14.20;33.20;;;;;;4966212;28;20247;-54
2024/03/11 09:53:58;;;;;;;1.10;1.00;;;14.50;32.90;;;;;;4969669;28;20303;-53
2024/03/11 09:56:25;;;;;;;1.30;1.20;;;14.10;32.90;;;;;;4962158;28;20265;-56
2024/03/11 09:58:55;;;;;;;1.23;1.20;;;14.50;32.70;;;;;;4956770;28;20298;-56
2024/03/11 10:01:24;;;;;;;0.90;0.90;;;14.60;32.30;;;;;;4966793;28;20701;-57
2024/03/11 10:03:51;;;;;;;1.10;1.10;;;14.90;31.40;;;;;;4963666;28;20576;-55
2024/03/11 10:06:19;;;;;;;1.23;1.03;;;15.10;30.90;;;;;;4984135;28;20271;-56
2024/03/11 10:08:49;;;;;;;1.20;1.10;;;15.30;30.70;;;;;;4975556;28;20209;-57
2024/03/11 10:11:18;;;;;;;1.47;1.20;;;15.40;30.50;;;;;;4986881;28;20569;-54
2024/03/11 10:13:45;;;;;;;1.20;1.10;;;15.60;29.90;;;;;;4990142;28;20697;-55
2024/03/11 10:16:16;;;;;;;1.10;1.10;;;15.70;29.00;;;;;;4998090;28;20210;-55
2024/03/11 10:18:48;;;;;;;1.10;1.00;;;15.60;29.50;;;;;;4989109;28;20630;-56
2024/03/11 10:21:15;;;;;;;1.17;1.10;;;15.60;29.70;;;;;;4998147;28;20247;-56
2024/03/11 10:23:41;;;;;;;1.20;1.10;;;15.60;29.80;;;;;;4985744;28;20598;-56
2024/03/11 10:26:17;;;;;;;2.27;1.00;;;15.70;29.60;;;;;;4997848;28;20627;-54
2024/03/11 10:28:44;;;;;;;0.93;0.93;;;15.90;29.50;;;;;;4994106;28;20296;-57
2024/03/11 10:31:11;;;;;;;1.83;1.30;;;15.50;29.30;;;;;;4997026;28;20290;-55
2024/03/11 10:33:39;;;;;;;1.33;1.23;;;15.70;30.10;;;;;;4988548;28;20262;-57
2024/03/11 10:36:06;;;;;;;1.00;0.90;;;15.90;29.50;;;;;;4993388;28;20255;-54
2024/03/11 10:38:33;;;;;;;1.30;1.00;;;16.20;28.70;;;;;;4993000;28;20270;-57
2024/03/11 10:40:59;;;;;;;0.90;0.90;;;16.10;27.80;;;;;;4998397;28;20694;-52
2024/03/11 10:43:26;;;;;;;1.00;1.00;;;16.20;27.80;;;;;;4991335;28;20208;-57
2024/03/11 10:45:53;;;;;;;0.97;0.90;;;16.30;27.30;;;;;;4997614;28;20218;-56
2024/03/11 10:48:19;;;;;;;1.23;1.00;;;16.40;27.80;;;;;;4983850;28;20299;-56
2024/03/11 10:50:46;;;;;;;2.43;1.10;;;16.60;27.90;;;;;;4996256;28;20216;-57
2024/03/11 10:53:12;;;;;;;1.13;1.10;;;16.30;28.10;;;;;;4992065;28;20257;-52
2024/03/11 10:55:42;;;;;;;1.00;1.00;;;16.30;27.30;;;;;;4997268;28;20592;-54
2024/03/11 10:58:09;;;;;;;1.47;1.00;;;16.60;27.50;;;;;;4996027;28;20209;-57
2024/03/11 11:00:36;;;;;;;1.00;1.00;;;17.00;27.00;;;;;;4998477;28;20233;-57
2024/03/11 11:03:07;;;;;;;1.10;1.00;;;17.10;27.10;;;;;;4991047;28;20285;-55
2024/03/11 11:05:35;;;;;;;1.70;0.80;;;17.40;26.10;;;;;;4996886;28;20222;-55
2024/03/11 11:08:03;;;;;;;1.00;1.00;;;17.40;26.20;;;;;;4996145;28;20203;-56
2024/03/11 11:10:35;;;;;;;0.90;0.90;;;17.50;26.30;;;;;;4998080;28;20315;-56
2024/03/11 11:13:01;;;;;;;0.80;0.80;;;17.70;26.00;;;;;;4998142;28;20717;-57
2024/03/11 11:15:28;;;;;;;0.90;0.90;;;18.00;26.00;;;;;;4997407;28;20610;-57
2024/03/11 11:17:55;;;;;;;1.43;0.90;;;18.20;25.40;;;;;;4996782;28;20215;-55
2024/03/11 11:20:32;;;;;;;1.10;1.00;;;17.80;25.70;;;;;;4989005;28;20208;-56
2024/03/11 11:23:00;;;;;;;1.57;1.43;;;18.00;25.50;;;;;;4994860;28;20255;-57
2024/03/11 11:25:26;;;;;;;1.25;1.15;;;18.40;25.60;;;;;;4983050;28;20220;-58
2024/03/11 11:27:55;;;;;;;1.70;1.00;;;18.80;25.20;;;;;;4987801;28;20570;-54
2024/03/11 11:30:22;;;;;;;0.80;0.80;;;18.70;24.90;;;;;;4982111;28;20266;-56
2024/03/11 11:32:49;;;;;;;1.52;0.98;;;18.90;23.80;;;;;;4985468;28;20235;-57
2024/03/11 11:35:16;;;;;;;1.42;1.10;;;19.30;24.80;;;;;;4992124;28;20239;-54
2024/03/11 11:40:14;;;;;;;1.73;0.75;;;19.90;23.60;;;;;;4994178;28;20214;-57
2024/03/11 11:42:41;;;;;;;1.20;0.93;;;20.40;23.60;;;;;;4993970;28;20223;-57
2024/03/11 11:45:11;;;;;;;1.13;0.85;;;20.60;22.70;;;;;;4986841;28;20654;-58
2024/03/11 11:47:38;;;;;;;1.30;1.00;;;20.40;22.70;;;;;;4989633;28;20258;-58
2024/03/11 11:50:04;;;;;;;1.52;1.30;;;20.40;22.90;;;;;;4980299;28;20219;-57
2024/03/11 11:52:31;;;;;;;1.38;0.70;;;20.00;23.10;;;;;;4984961;28;20224;-57
2024/03/11 11:54:57;;;;;;;0.70;0.70;;;19.60;23.00;;;;;;4992344;28;20222;-57
2024/03/11 11:57:25;;;;;;;0.77;0.73;;;19.60;23.70;;;;;;4983703;28;20267;-57
2024/03/11 11:59:52;;;;;;;1.27;1.17;;;19.60;23.80;;;;;;4989677;28;20212;-58
2024/03/11 12:02:19;;;;;;;0.90;0.90;;;19.90;23.30;;;;;;4982792;28;20235;-58
2024/03/11 12:04:47;;;;;;;1.00;0.88;;;19.60;23.80;;;;;;4986806;28;20269;-57
2024/03/11 12:07:13;;;;;;;0.90;0.88;;;19.70;23.90;;;;;;4987903;28;20207;-57
2024/03/11 12:09:40;;;;;;;1.05;0.93;;;19.60;23.50;;;;;;4988500;28;20211;-57
2024/03/11 12:12:06;;;;;;;1.10;0.75;;;19.40;23.70;;;;;;4988492;28;20224;-58
2024/03/11 12:14:33;;;;;;;2.03;1.00;;;19.10;23.40;;;;;;4993665;28;20266;-56
2024/03/11 12:17:02;;;;;;;3.10;1.10;;;19.20;24.10;;;;;;4991664;28;20212;-57
2024/03/11 12:19:30;;;;;;;0.82;0.70;;;19.00;24.20;;;;;;4988308;28;20337;-58
2024/03/11 12:21:58;;;;;;;1.63;1.10;;;18.40;24.80;;;;;;4990300;28;20251;-57
2024/03/11 12:24:25;;;;;;;1.83;1.10;;;18.10;24.70;;;;;;4987861;28;20479;-57
2024/03/11 12:26:53;;;;;;;1.60;1.50;;;17.60;25.30;;;;;;4984542;28;20305;-53
2024/03/11 12:29:21;;;;;;;1.77;1.27;;;17.30;25.50;;;;;;4993093;28;20210;-58
2024/03/11 12:31:47;;;;;;;1.33;1.10;;;17.00;25.90;;;;;;4985872;28;20761;-57
2024/03/11 12:34:15;;;;;;;1.00;0.90;;;16.70;26.10;;;;;;4979050;28;20259;-56
2024/03/11 12:36:46;;;;;;;1.00;1.00;;;16.80;26.30;;;;;;4988527;28;20208;-53
2024/03/11 12:39:25;;;;;;;4.97;1.00;;;17.40;25.30;;;;;;4992164;28;20217;-57
2024/03/11 12:41:52;;;;;;;1.20;1.10;;;16.90;26.10;;;;;;4978947;28;20616;-63
2024/03/11 12:44:19;;;;;;;3.63;1.00;;;17.30;26.20;;;;;;4994285;28;20212;-54
2024/03/11 12:46:45;;;;;;;1.10;1.00;;;17.40;24.70;;;;;;4993837;28;20263;-57
2024/03/11 12:49:12;;;;;;;1.47;1.37;;;16.90;25.00;;;;;;4986007;28;20211;-58
2024/03/11 12:51:39;;;;;;;1.50;1.20;;;16.40;25.80;;;;;;4996519;28;20318;-58
2024/03/11 12:54:05;;;;;;;2.07;1.10;;;16.40;25.80;;;;;;4990690;28;20209;-57